»·PEaware :: N811KC KASE-KLAS

N811KC :: KASE-KLAS

FLIGHT INFORMATION

Flight Status: Arrived
Operator: Privately registered:
United States
More flights under this callsign
Pilot: John L. (26044)
Aircraft: BEECH AIRCRAFT A90-E90 KING AIR
(BE9L)
More flights by this aircraft type
Origin: KASE Aspen-Pitkin Co/Sardy
United States
Destination: KLAS McCarran Intl
United States
More flights between these airports :: More routes between these airports
Route: +LINDZ9 JNC EDLES HVE MMM V21 LAPIN V562 LAS
File this flight plan on PilotEdge
Remarks:
Altitude:
(Current/Filed)
24,000ft
Speed:
(Current/Filed)
180kts
Departed: 21-Dec-19 01:24 PM
Arrived: 21-Dec-19 04:59 PM
Distance/Time
Traveled:
436nm/3:35
Distance/Time
To Go:
Arrived

Flight Plot

Page will automatically refresh every two minutes.

Flight plan parsing failed; only flown route is shown


Map Options




Map Legend


Flown Route
Filed Route
Departure Airport
Arrival Airport
Navaid (VOR, NDB)
Fix

Horizontal Profiles

Position Reports

Time Latitude Longitude Heading Altitude Ground
Speed
21-Dec-19 13:01 39.227895 -106.869601 250 7837ft 0kts
21-Dec-19 13:02 39.227895 -106.869601 250 7837ft 0kts
21-Dec-19 13:03 39.227895 -106.869601 250 7837ft 0kts
21-Dec-19 13:04 39.227895 -106.869601 250 7837ft 0kts
21-Dec-19 13:05 39.227895 -106.869601 250 7837ft 0kts
21-Dec-19 13:06 39.227895 -106.869601 250 7837ft 0kts
21-Dec-19 13:07 39.227895 -106.869601 250 7837ft 0kts
21-Dec-19 13:08 39.227895 -106.869601 250 7837ft 0kts
21-Dec-19 13:09 39.227895 -106.869601 250 7837ft 0kts
21-Dec-19 13:10 39.227895 -106.869601 250 7837ft 0kts
21-Dec-19 13:11 39.227895 -106.869601 250 7837ft 0kts
21-Dec-19 13:12 39.227895 -106.869601 250 7837ft 0kts
21-Dec-19 13:13 39.227895 -106.869601 250 7837ft 0kts
21-Dec-19 13:14 39.227895 -106.869601 250 7837ft 0kts
21-Dec-19 13:15 39.227895 -106.869601 250 7837ft 0kts
21-Dec-19 13:16 39.227895 -106.869601 250 7837ft 0kts
21-Dec-19 13:17 39.227128 -106.869537 159 7837ft 14kts
21-Dec-19 13:18 39.222904 -106.867541 160 7837ft 27kts
21-Dec-19 13:19 39.217852 -106.865173 160 7837ft 28kts
21-Dec-19 13:19 39.214826 -106.863726 162 7837ft 0kts
21-Dec-19 13:21 39.214826 -106.863726 162 7837ft 0kts
21-Dec-19 13:22 39.212344 -106.862601 170 7837ft 0kts
21-Dec-19 13:22 39.211836 -106.863268 285 7837ft 17kts
21-Dec-19 13:23 39.226410 -106.870417 340 8105ft 107kts
21-Dec-19 13:24 39.251573 -106.874896 350 9205ft 110kts
21-Dec-19 13:26 39.264583 -106.908997 282 10443ft 106kts
21-Dec-19 13:26 39.270526 -106.935620 283 11251ft 107kts
21-Dec-19 13:27 39.279746 -106.969341 282 12291ft 113kts
21-Dec-19 13:28 39.287598 -107.002480 267 13300ft 107kts
21-Dec-19 13:29 39.293807 -107.034384 301 14221ft 117kts
21-Dec-19 13:30 39.313976 -107.061428 303 15110ft 119kts
21-Dec-19 13:31 39.334286 -107.087727 303 15924ft 120kts
21-Dec-19 13:32 39.354731 -107.114093 303 16689ft 120kts
21-Dec-19 13:33 39.375339 -107.140656 303 17426ft 120kts
21-Dec-19 13:34 39.385272 -107.170860 257 18104ft 106kts
21-Dec-19 13:35 39.379774 -107.203528 254 18749ft 107kts
21-Dec-19 13:36 39.373589 -107.235981 254 19299ft 108kts
21-Dec-19 13:37 39.367193 -107.268971 254 19799ft 109kts
21-Dec-19 13:38 39.360682 -107.302428 255 20271ft 109kts
21-Dec-19 13:39 39.354115 -107.336109 255 20714ft 110kts
21-Dec-19 13:40 39.347604 -107.369446 255 21122ft 111kts
21-Dec-19 13:41 39.340909 -107.403672 256 21539ft 111kts
21-Dec-19 13:42 39.334221 -107.437796 256 21939ft 112kts
21-Dec-19 13:43 39.327423 -107.472418 256 22315ft 113kts
21-Dec-19 13:44 39.320658 -107.506769 256 22662ft 113kts
21-Dec-19 13:45 39.313815 -107.541469 257 22987ft 114kts
21-Dec-19 13:46 39.306897 -107.576521 257 23291ft 115kts
21-Dec-19 13:47 39.299753 -107.612660 257 23584ft 115kts
21-Dec-19 13:48 39.292368 -107.649952 257 23860ft 116kts
21-Dec-19 13:49 39.285096 -107.686595 257 24146ft 116kts
21-Dec-19 13:50 39.277559 -107.724511 257 24420ft 117kts
21-Dec-19 13:51 39.270044 -107.762318 257 24453ft 131kts
21-Dec-19 13:52 39.261767 -107.803861 257 24449ft 141kts
21-Dec-19 13:53 39.252966 -107.847910 257 24446ft 147kts
21-Dec-19 13:54 39.243881 -107.893257 257 24442ft 150kts
21-Dec-19 13:55 39.234564 -107.939651 257 24438ft 152kts
21-Dec-19 13:56 39.224751 -107.988402 257 24434ft 153kts
21-Dec-19 13:57 39.214750 -108.037966 257 24433ft 153kts
21-Dec-19 13:58 39.204450 -108.088892 257 24435ft 153kts
21-Dec-19 13:59 39.193169 -108.144528 257 24439ft 153kts
21-Dec-19 14:00 39.183025 -108.194424 257 24442ft 153kts
21-Dec-19 14:01 39.171854 -108.249240 257 24446ft 153kts
21-Dec-19 14:02 39.161529 -108.299782 257 24446ft 153kts
21-Dec-19 14:03 39.151141 -108.350511 257 24445ft 153kts
21-Dec-19 14:04 39.140847 -108.400662 257 24445ft 152kts
21-Dec-19 14:05 39.130875 -108.449129 257 24445ft 152kts
21-Dec-19 14:06 39.120609 -108.498912 257 24444ft 152kts
21-Dec-19 14:07 39.110402 -108.548289 257 24444ft 152kts
21-Dec-19 14:08 39.100252 -108.597277 257 24443ft 150kts
21-Dec-19 14:09 39.090261 -108.645389 257 24443ft 148kts
21-Dec-19 14:10 39.080692 -108.691355 256 24450ft 149kts
21-Dec-19 14:11 39.070998 -108.737839 256 24443ft 150kts
21-Dec-19 14:12 39.061167 -108.784870 256 24421ft 151kts
21-Dec-19 14:13 39.046988 -108.830951 250 24421ft 151kts
21-Dec-19 14:14 39.031246 -108.879271 250 24421ft 151kts
21-Dec-19 14:15 39.016380 -108.924739 250 24421ft 153kts
21-Dec-19 14:16 39.002872 -108.965971 250 24421ft 155kts
21-Dec-19 14:17 38.987641 -109.012390 249 24420ft 156kts
21-Dec-19 14:18 38.972429 -109.058663 249 24420ft 156kts
21-Dec-19 14:19 38.957395 -109.104323 249 24419ft 156kts
21-Dec-19 14:20 38.942313 -109.150052 249 24419ft 156kts
21-Dec-19 14:21 38.927472 -109.194981 249 24419ft 155kts
21-Dec-19 14:22 38.912874 -109.239102 249 24418ft 155kts
21-Dec-19 14:23 38.898373 -109.282865 249 24419ft 155kts
21-Dec-19 14:24 38.884143 -109.325745 249 24419ft 156kts
21-Dec-19 14:25 38.870087 -109.368043 249 24419ft 157kts
21-Dec-19 14:26 38.856124 -109.409995 249 24418ft 157kts
21-Dec-19 14:27 38.840982 -109.455422 249 24418ft 157kts
21-Dec-19 14:28 38.827786 -109.494958 249 24416ft 153kts
21-Dec-19 14:29 38.816465 -109.528824 249 24418ft 154kts
21-Dec-19 14:30 38.805066 -109.562885 249 24418ft 155kts
21-Dec-19 14:31 38.793526 -109.597324 249 24417ft 156kts
21-Dec-19 14:32 38.782375 -109.630567 249 24417ft 156kts
21-Dec-19 14:33 38.771612 -109.662613 249 24422ft 157kts
21-Dec-19 14:34 38.761349 -109.693146 249 24423ft 158kts
21-Dec-19 14:35 38.750771 -109.724579 249 24422ft 158kts
21-Dec-19 14:36 38.740323 -109.755589 249 24422ft 159kts
21-Dec-19 14:37 38.729994 -109.786213 249 24422ft 159kts
21-Dec-19 14:38 38.719602 -109.816991 249 24422ft 159kts
21-Dec-19 14:39 38.707651 -109.852346 249 24421ft 159kts
21-Dec-19 14:40 38.698547 -109.879250 249 24421ft 159kts
21-Dec-19 14:41 38.687889 -109.910715 249 24421ft 159kts
21-Dec-19 14:42 38.677048 -109.942683 249 24421ft 159kts
21-Dec-19 14:43 38.666158 -109.974760 249 24421ft 159kts
21-Dec-19 14:44 38.655175 -110.007073 249 24420ft 159kts
21-Dec-19 14:45 38.644100 -110.039623 249 24420ft 159kts
21-Dec-19 14:46 38.633021 -110.072149 249 24420ft 159kts
21-Dec-19 14:47 38.621804 -110.105040 249 24420ft 159kts
21-Dec-19 14:48 38.610628 -110.137777 249 24420ft 159kts
21-Dec-19 14:49 38.599492 -110.170358 249 24420ft 159kts
21-Dec-19 14:50 38.588495 -110.202498 249 24425ft 158kts
21-Dec-19 14:51 38.577683 -110.234061 249 24429ft 158kts
21-Dec-19 14:52 38.560601 -110.283860 249 24437ft 158kts
21-Dec-19 14:53 38.550502 -110.313259 249 24441ft 158kts
21-Dec-19 14:54 38.540581 -110.342115 249 24445ft 158kts
21-Dec-19 14:55 38.530702 -110.370818 249 24449ft 158kts
21-Dec-19 14:56 38.520777 -110.399626 249 24454ft 157kts
21-Dec-19 14:57 38.510847 -110.428424 249 24455ft 158kts
21-Dec-19 14:58 38.500813 -110.457490 249 24454ft 158kts
21-Dec-19 14:59 38.490724 -110.486687 249 24454ft 158kts
21-Dec-19 15:00 38.480628 -110.515879 249 24454ft 158kts
21-Dec-19 15:01 38.470524 -110.545059 249 24454ft 158kts
21-Dec-19 15:02 38.460386 -110.574312 249 24454ft 158kts
21-Dec-19 15:03 38.449723 -110.605049 249 24453ft 158kts
21-Dec-19 15:04 38.439455 -110.634617 249 24453ft 157kts
21-Dec-19 15:05 38.427569 -110.668800 248 24459ft 158kts
21-Dec-19 15:06 38.415636 -110.701533 236 24454ft 161kts
21-Dec-19 15:07 38.397893 -110.731008 236 24459ft 161kts
21-Dec-19 15:08 38.380249 -110.760329 236 24459ft 162kts
21-Dec-19 15:09 38.362624 -110.789543 236 24458ft 162kts
21-Dec-19 15:10 38.346028 -110.817013 236 24458ft 162kts
21-Dec-19 15:11 38.335308 -110.834742 236 24458ft 162kts
21-Dec-19 15:12 38.320899 -110.858559 236 24449ft 163kts
21-Dec-19 15:13 38.310547 -110.875654 236 24449ft 163kts
21-Dec-19 15:14 38.300228 -110.892692 236 24449ft 162kts
21-Dec-19 15:15 38.286254 -110.915752 236 24448ft 162kts
21-Dec-19 15:16 38.268037 -110.945783 236 24448ft 162kts
21-Dec-19 15:17 38.249801 -110.975825 235 24451ft 165kts
21-Dec-19 15:19 38.230831 -111.007043 235 24448ft 168kts
21-Dec-19 15:20 38.211490 -111.038835 235 24447ft 170kts
21-Dec-19 15:21 38.191987 -111.070861 234 24447ft 171kts
21-Dec-19 15:22 38.172446 -111.102917 234 24446ft 171kts
21-Dec-19 15:23 38.152672 -111.135316 234 24445ft 172kts
21-Dec-19 15:24 38.132811 -111.167824 234 24445ft 171kts
21-Dec-19 15:25 38.112526 -111.200998 234 24444ft 170kts
21-Dec-19 15:26 38.092664 -111.233450 234 24444ft 169kts
21-Dec-19 15:27 38.072895 -111.265720 234 24443ft 168kts
21-Dec-19 15:28 38.053252 -111.297754 234 24437ft 167kts
21-Dec-19 15:29 38.033842 -111.329375 234 24429ft 166kts
21-Dec-19 15:30 38.014692 -111.360545 234 24420ft 167kts
21-Dec-19 15:31 37.998228 -111.387318 234 24410ft 167kts
21-Dec-19 15:32 37.978807 -111.418872 234 24399ft 167kts
21-Dec-19 15:33 37.958685 -111.451533 234 24390ft 168kts
21-Dec-19 15:34 37.938946 -111.483539 234 24383ft 168kts
21-Dec-19 15:35 37.918879 -111.516047 234 24378ft 167kts
21-Dec-19 15:36 37.895344 -111.554129 234 24380ft 167kts
21-Dec-19 15:37 37.876289 -111.584928 234 24381ft 167kts
21-Dec-19 15:37 37.859233 -111.612473 234 24381ft 168kts
21-Dec-19 15:39 37.837920 -111.646861 234 24381ft 168kts
21-Dec-19 15:39 37.820010 -111.675732 233 24388ft 168kts
21-Dec-19 15:40 37.800869 -111.706561 233 24388ft 169kts
21-Dec-19 15:42 37.772656 -111.751947 233 24387ft 170kts
21-Dec-19 15:42 37.752331 -111.784605 233 24387ft 170kts
21-Dec-19 15:43 37.728250 -111.823254 233 24386ft 170kts
21-Dec-19 15:45 37.700664 -111.867474 233 24386ft 170kts
21-Dec-19 15:45 37.680544 -111.899687 233 24385ft 170kts
21-Dec-19 15:46 37.656133 -111.938729 233 24385ft 170kts
21-Dec-19 15:47 37.631999 -111.977282 233 24385ft 170kts
21-Dec-19 15:48 37.607836 -112.015838 233 24384ft 170kts
21-Dec-19 15:49 37.583520 -112.054591 233 24384ft 170kts
21-Dec-19 15:50 37.559334 -112.093092 233 24383ft 170kts
21-Dec-19 15:51 37.535031 -112.131736 233 24383ft 170kts
21-Dec-19 15:52 37.514886 -112.173064 239 24383ft 169kts
21-Dec-19 15:53 37.494655 -112.215402 239 24382ft 169kts
21-Dec-19 15:54 37.474735 -112.257050 239 24382ft 169kts
21-Dec-19 15:55 37.454867 -112.298538 239 24381ft 169kts
21-Dec-19 15:56 37.434922 -112.340136 239 24380ft 169kts
21-Dec-19 15:57 37.414921 -112.381799 239 24378ft 168kts
21-Dec-19 15:58 37.394994 -112.423254 239 24375ft 168kts
21-Dec-19 15:59 37.375493 -112.464511 241 24373ft 168kts
21-Dec-19 16:00 37.358885 -112.506738 247 24372ft 168kts
21-Dec-19 16:01 37.344425 -112.551016 247 24370ft 168kts
21-Dec-19 16:02 37.330281 -112.594613 247 24366ft 168kts
21-Dec-19 16:03 37.315979 -112.638712 247 24362ft 168kts
21-Dec-19 16:04 37.301552 -112.683144 247 24369ft 168kts
21-Dec-19 16:05 37.286997 -112.727910 247 24372ft 169kts
21-Dec-19 16:06 37.272239 -112.773233 247 24375ft 169kts
21-Dec-19 16:07 37.256960 -112.820090 247 24371ft 169kts
21-Dec-19 16:08 37.241603 -112.867111 246 24364ft 169kts
21-Dec-19 16:09 37.225950 -112.914952 246 24357ft 168kts
21-Dec-19 16:10 37.210375 -112.962476 246 24352ft 166kts
21-Dec-19 16:11 37.194337 -113.011333 245 24347ft 165kts
21-Dec-19 16:12 37.178334 -113.060035 244 24341ft 162kts
21-Dec-19 16:13 37.162528 -113.107972 244 24332ft 161kts
21-Dec-19 16:14 37.146290 -113.157176 244 24322ft 160kts
21-Dec-19 16:15 37.130343 -113.205427 244 24312ft 159kts
21-Dec-19 16:16 37.114510 -113.253256 244 24303ft 158kts
21-Dec-19 16:17 37.098840 -113.300512 244 24295ft 158kts
21-Dec-19 16:18 37.083373 -113.347088 244 24295ft 158kts
21-Dec-19 16:19 37.067807 -113.393884 244 24294ft 157kts
21-Dec-19 16:20 37.052198 -113.440737 244 24294ft 157kts
21-Dec-19 16:21 37.036517 -113.487735 244 24294ft 157kts
21-Dec-19 16:22 37.020380 -113.536016 245 24293ft 158kts
21-Dec-19 16:23 37.004194 -113.584360 245 24292ft 158kts
21-Dec-19 16:24 36.987977 -113.632724 245 24292ft 158kts
21-Dec-19 16:25 36.971594 -113.681495 244 24301ft 159kts
21-Dec-19 16:26 36.955177 -113.730286 245 24300ft 160kts
21-Dec-19 16:27 36.938582 -113.779543 245 24300ft 161kts
21-Dec-19 16:28 36.921673 -113.829634 245 23855ft 178kts
21-Dec-19 16:29 36.902765 -113.885562 244 23171ft 192kts
21-Dec-19 16:30 36.882838 -113.944383 244 22486ft 201kts
21-Dec-19 16:31 36.862469 -114.004412 244 21526ft 212kts
21-Dec-19 16:32 36.841220 -114.066887 244 20626ft 215kts
21-Dec-19 16:33 36.819718 -114.129968 244 19688ft 219kts
21-Dec-19 16:34 36.797588 -114.194757 244 18094ft 235kts
21-Dec-19 16:35 36.774104 -114.263381 243 16372ft 243kts
21-Dec-19 16:36 36.727359 -114.310009 211 14815ft 237kts
21-Dec-19 16:37 36.676776 -114.348345 211 13480ft 233kts
21-Dec-19 16:38 36.626590 -114.386656 211 12244ft 229kts
21-Dec-19 16:39 36.578850 -114.423056 211 11999ft 205kts
21-Dec-19 16:40 36.535346 -114.456187 211 11992ft 194kts
21-Dec-19 16:41 36.493817 -114.487778 211 11988ft 189kts
21-Dec-19 16:42 36.453007 -114.518788 211 11989ft 187kts
21-Dec-19 16:43 36.413147 -114.549037 211 11990ft 187kts
21-Dec-19 16:44 36.372760 -114.579649 211 11991ft 187kts
21-Dec-19 16:45 36.331967 -114.610525 211 11860ft 193kts
21-Dec-19 16:46 36.289006 -114.643001 213 11249ft 206kts
21-Dec-19 16:47 36.242750 -114.677929 213 10639ft 196kts
21-Dec-19 16:48 36.203341 -114.707640 215 9849ft 178kts
21-Dec-19 16:49 36.184290 -114.754881 261 8911ft 180kts
21-Dec-19 16:50 36.176969 -114.812385 261 8047ft 182kts
21-Dec-19 16:51 36.168535 -114.869659 261 7179ft 190kts
21-Dec-19 16:52 36.164497 -114.933462 261 6997ft 216kts
21-Dec-19 16:53 36.159993 -115.007613 262 6993ft 231kts
21-Dec-19 16:54 36.157482 -115.075842 258 6197ft 179kts
21-Dec-19 16:55 36.149255 -115.129249 219 4601ft 144kts
21-Dec-19 16:56 36.118715 -115.145839 200 2511ft 134kts
21-Dec-19 16:57 36.088014 -115.162977 200 2129ft 64kts
21-Dec-19 16:58 36.083602 -115.166906 227 2152ft 2kts
21-Dec-19 16:59 36.082852 -115.167601 223 2156ft 16kts
21-Dec-19 17:00 36.087077 -115.166034 19 2141ft 37kts
21-Dec-19 17:01 36.094867 -115.161503 25 2109ft 35kts
21-Dec-19 17:02 36.100225 -115.160404 276 2097ft 0kts
21-Dec-19 17:03 36.100226 -115.160406 276 2097ft 0kts
21-Dec-19 17:04 36.100226 -115.160406 276 2097ft 0kts
21-Dec-19 17:05 36.100226 -115.160406 276 2097ft 0kts
21-Dec-19 17:06 36.100226 -115.160406 276 2097ft 0kts
21-Dec-19 17:07 36.100226 -115.160406 276 2097ft 0kts
21-Dec-19 17:08 36.100226 -115.160406 276 2097ft 0kts
21-Dec-19 17:09 36.100225 -115.160406 276 2097ft 0kts
21-Dec-19 17:10 36.100225 -115.160406 276 2097ft 0kts
21-Dec-19 17:11 36.100225 -115.160406 276 2097ft 0kts
21-Dec-19 17:12 36.100225 -115.160406 276 2097ft 0kts
21-Dec-19 17:13 36.100225 -115.160406 276 2097ft 0kts

Navigation Log

Ident Type
Flight plan parsing failed, navigation log unavailable